Aviation Digital Data Service (ADDS)

Output produced by METARs form (1538 UTC 26 April 2019)
found at http://www.aviationweather.gov/metar/data/
 
TAF WMKE 261100Z 2612/2712 VRB03KT 9999 FEW015 BKN260 
     BECMG 2700/2702 25005KT